Meteorological information in strange format.

METAR = LHBP 040500Z 34006KT CAVOK 19/16 Q1016 NOSIG

SHORT TAF = TAF TAF LHBP 242330Z 2423/2424 30008KT CAVOK BECMG 2506/2509 24010KT OVC030 TEMPO 2509/2515 24015G25KT 8000 -RA BKN013 OVC025 BECMG 2515/2518 30008KT CAVOK

LONG TAF = TAF TAF LHBP 031715Z 0318/0418 32014G25KT CAVOK BECMG 0318/0320 32008KT BECMG 0322/0324 VRB03KT TEMPO 0409/0415 32008KT

STATION........ LHBP
OBSERVED....... Sat Jul 4, 07:00 CEST
NOW............ Sat Jul 4, 07:16 CEST
AGE............ 16 min ago
WIND........... NNW at 7 mph
VISIBILITY..... greater than 7 miles
CLOUDS......... clear skies
TEMP........... 66°F (19°C)
DEWPT.......... 61°F (16°C)
HUMIDITY....... 83%
BAROMETER...... 1016 hPa (30 in Hg)

Further information from LHBP station

Request meteor information from:        station.    

 

www.tothgeza.hu

 

Magyar változat
Copyright © 2003-2020 Tóth Géza Minden jog fenntartva.